Terminal Aerodrome Forecast
Issued by NWS

Home | Current Version | Previous Version | Text Only | Print | Product List | Glossary On
Versions: 1 2 3 4 5 6 7 8 9 10 11 12 13 14 15 16 17 18 19 20 21 22 23 24 25
000
FTUS44 KBMX 230538
TAFMGM
TAF
KMGM 230538Z 2306/2406 23005KT P6SM VCSH SCT010 BKN050 OVC200
     FM230800 VRB03KT 6SM -RA BKN007 OVC020
     FM231000 VRB03KT 4SM -RA BKN004 BKN012
     FM231600 24004KT 4SM SHRA VCTS BKN025CB OVC050
     FM232100 VRB03KT P6SM VCTS SCT007CB OVC040
     FM240200 22004KT P6SM BKN050 OVC250=

USA.gov is the U.S. government's official web portal to all federal, state and local government web resources and services.